createdAt,value
2024-01-06T00:00:40.021Z,99652.66
2024-01-06T00:01:43.170Z,99651.84
2024-01-06T00:02:46.449Z,99657.34
2024-01-06T00:03:49.607Z,99647.69
2024-01-06T00:04:52.662Z,99656.78
2024-01-06T00:05:55.750Z,99649.88
2024-01-06T00:06:58.826Z,99647.03
2024-01-06T00:08:01.851Z,99647.56
2024-01-06T00:09:04.864Z,99645.50
2024-01-06T00:10:08.578Z,99649.38
2024-01-06T00:11:11.876Z,99642.19
2024-01-06T00:12:14.889Z,99643.03
2024-01-06T00:13:17.941Z,99642.88
2024-01-06T00:14:20.955Z,99640.97
2024-01-06T00:15:23.973Z,99636.41
2024-01-06T00:16:29.570Z,99636.56
2024-01-06T00:17:33.002Z,99636.13
2024-01-06T00:18:36.093Z,99638.91
2024-01-06T00:19:39.573Z,99633.13
2024-01-06T00:20:42.637Z,99627.59
2024-01-06T00:21:45.779Z,99630.78
2024-01-06T00:22:48.829Z,99634.22
2024-01-06T00:23:51.907Z,99628.00
2024-01-06T00:24:54.916Z,99626.47
2024-01-06T00:25:58.204Z,99632.28
2024-01-06T00:27:01.205Z,99625.13
2024-01-06T00:28:04.389Z,99623.88
2024-01-06T00:29:07.399Z,99622.38
2024-01-06T00:30:10.971Z,99622.66
2024-01-06T00:31:14.137Z,99625.97
2024-01-06T00:32:17.270Z,99633.66
2024-01-06T00:33:20.434Z,99630.34
2024-01-06T00:34:23.707Z,99634.75
2024-01-06T00:35:26.831Z,99633.09
2024-01-06T00:36:29.881Z,99629.81
2024-01-06T00:37:32.944Z,99630.09
2024-01-06T00:38:36.357Z,99629.94
2024-01-06T00:39:39.382Z,99630.50
2024-01-06T00:40:42.450Z,99630.78
2024-01-06T00:41:45.444Z,99630.50
2024-01-06T00:42:48.457Z,99624.84
2024-01-06T00:43:51.451Z,99616.44
2024-01-06T00:44:54.436Z,99611.63
2024-01-06T00:45:57.466Z,99612.31
2024-01-06T00:47:00.572Z,99617.41
2024-01-06T00:48:03.805Z,99612.84
2024-01-06T00:49:06.967Z,99607.78
2024-01-06T00:50:10.188Z,99611.06
2024-01-06T00:51:13.244Z,99608.72
2024-01-06T00:52:16.244Z,99611.88
2024-01-06T00:53:19.232Z,99609.44
2024-01-06T00:54:22.242Z,99616.56
2024-01-06T00:55:25.564Z,99613.97
2024-01-06T00:56:28.587Z,99612.59
2024-01-06T00:57:31.640Z,99616.31
2024-01-06T00:58:34.674Z,99613.28
2024-01-06T00:59:37.653Z,99608.03
2024-01-06T01:00:41.334Z,99611.75
2024-01-06T01:01:44.452Z,99609.13
2024-01-06T01:02:47.478Z,99609.13
2024-01-06T01:03:50.539Z,99607.50
2024-01-06T01:04:54.529Z,99607.78
2024-01-06T01:05:57.804Z,99609.41
2024-01-06T01:07:00.837Z,99605.16
2024-01-06T01:08:03.997Z,99603.88
2024-01-06T01:09:07.025Z,99609.00
2024-01-06T01:10:11.061Z,99606.38
2024-01-06T01:11:14.105Z,99609.97
2024-01-06T01:12:17.282Z,99604.88
2024-01-06T01:13:20.327Z,99600.59
2024-01-06T01:14:23.909Z,99602.91
2024-01-06T01:15:26.899Z,99601.53
2024-01-06T01:16:30.090Z,99604.44
2024-01-06T01:17:33.141Z,99600.47
2024-01-06T01:18:36.239Z,99602.53
2024-01-06T01:19:39.396Z,99599.75
2024-01-06T01:20:44.917Z,99598.94
2024-01-06T01:21:48.016Z,99597.97
2024-01-06T01:22:51.047Z,99602.25
2024-01-06T01:23:54.040Z,99597.03
2024-01-06T01:24:57.097Z,99600.47
2024-01-06T01:26:00.115Z,99593.44
2024-01-06T01:27:03.179Z,99597.81
2024-01-06T01:28:06.463Z,99599.59
2024-01-06T01:29:09.451Z,99599.34
2024-01-06T01:30:13.247Z,99588.72
2024-01-06T01:31:16.570Z,99596.44
2024-01-06T01:32:20.296Z,99598.09
2024-01-06T01:33:23.605Z,99599.06
2024-01-06T01:34:26.777Z,99605.00
2024-01-06T01:35:29.842Z,99606.91
2024-01-06T01:36:32.842Z,99602.50
2024-01-06T01:37:35.933Z,99605.00
2024-01-06T01:38:38.926Z,99600.84
2024-01-06T01:39:41.970Z,99599.75
2024-01-06T01:40:44.983Z,99597.28
2024-01-06T01:41:47.994Z,99596.16
2024-01-06T01:42:50.991Z,99597.03
2024-01-06T01:43:59.410Z,99598.38
2024-01-06T01:45:02.551Z,99596.03
2024-01-06T01:46:05.881Z,99594.00
2024-01-06T01:47:08.997Z,99592.09
2024-01-06T01:48:12.368Z,99592.09
2024-01-06T01:49:16.099Z,99587.13
2024-01-06T01:50:21.344Z,99591.25
2024-01-06T01:51:28.953Z,99586.72
2024-01-06T01:52:31.984Z,99578.59
2024-01-06T01:53:35.037Z,99583.53
2024-01-06T01:54:38.214Z,99582.31
2024-01-06T01:55:43.538Z,99576.41
2024-01-06T01:56:46.944Z,99582.16
2024-01-06T01:57:50.257Z,99568.25
2024-01-06T01:58:53.712Z,99566.88
2024-01-06T01:59:56.901Z,99575.69
2024-01-06T02:01:00.048Z,99572.94
2024-01-06T02:02:03.804Z,99570.59
2024-01-06T02:03:07.160Z,99567.00
2024-01-06T02:04:11.107Z,99571.69
2024-01-06T02:05:14.217Z,99568.41
2024-01-06T02:06:17.278Z,99563.00
2024-01-06T02:07:20.369Z,99565.09
2024-01-06T02:08:24.154Z,99566.72
2024-01-06T02:09:30.657Z,99565.50
2024-01-06T02:10:33.802Z,99565.50
2024-01-06T02:11:36.801Z,99566.03
2024-01-06T02:12:39.890Z,99566.44
2024-01-06T02:13:42.879Z,99557.25
2024-01-06T02:14:45.881Z,99554.63
2024-01-06T02:15:48.948Z,99553.81
2024-01-06T02:16:51.931Z,99554.59
2024-01-06T02:17:55.039Z,99566.56
2024-01-06T02:18:59.575Z,99563.00
2024-01-06T02:20:02.775Z,99564.25
2024-01-06T02:21:08.584Z,99553.63
2024-01-06T02:22:11.628Z,99561.75
2024-01-06T02:23:14.619Z,99562.59
2024-01-06T02:24:17.750Z,99559.00
2024-01-06T02:25:20.860Z,99559.28
2024-01-06T02:26:23.876Z,99555.84
2024-01-06T02:27:27.278Z,99557.94
2024-01-06T02:28:30.310Z,99560.25
2024-01-06T02:29:33.316Z,99557.66
2024-01-06T02:30:36.374Z,99549.50
2024-01-06T02:31:39.454Z,99544.94
2024-01-06T02:32:42.527Z,99548.53
2024-01-06T02:33:45.576Z,99552.41
2024-01-06T02:34:48.716Z,99553.91
2024-01-06T02:35:52.120Z,99551.00
2024-01-06T02:36:55.224Z,99549.09
2024-01-06T02:37:58.241Z,99552.66
2024-01-06T02:39:01.241Z,99546.91
2024-01-06T02:40:04.786Z,99547.84
2024-01-06T02:41:07.764Z,99545.78
2024-01-06T02:42:10.792Z,99545.50
2024-01-06T02:43:13.877Z,99541.66
2024-01-06T02:44:16.868Z,99541.66
2024-01-06T02:45:19.884Z,99541.13
2024-01-06T02:46:22.939Z,99536.44
2024-01-06T02:47:25.940Z,99537.94
2024-01-06T02:48:31.903Z,99541.91
2024-01-06T02:49:35.102Z,99537.78
2024-01-06T02:50:38.118Z,99536.69
2024-01-06T02:51:41.120Z,99529.25
2024-01-06T02:52:45.101Z,99533.41
2024-01-06T02:53:48.110Z,99521.53
2024-01-06T02:54:51.214Z,99526.91
2024-01-06T02:55:54.234Z,99520.03
2024-01-06T02:56:57.211Z,99525.13
2024-01-06T02:58:00.232Z,99520.41
2024-01-06T02:59:03.271Z,99521.81
2024-01-06T03:00:07.814Z,99521.81
2024-01-06T03:01:13.205Z,99519.34
2024-01-06T03:02:16.319Z,99523.03
2024-01-06T03:03:19.948Z,99527.03
2024-01-06T03:04:23.104Z,99523.75
2024-01-06T03:05:26.531Z,99522.78
2024-01-06T03:06:29.689Z,99517.13
2024-01-06T03:07:32.698Z,99514.78
2024-01-06T03:08:35.911Z,99516.16
2024-01-06T03:09:40.080Z,99516.06
2024-01-06T03:10:43.132Z,99515.78
2024-01-06T03:11:46.898Z,99506.81
2024-01-06T03:12:50.132Z,99506.66
2024-01-06T03:13:53.153Z,99508.56
2024-01-06T03:14:56.123Z,99509.72
2024-01-06T03:15:59.186Z,99520.31
2024-01-06T03:17:02.396Z,99510.91
2024-01-06T03:18:05.576Z,99516.28
2024-01-06T03:19:08.823Z,99509.41
2024-01-06T03:20:11.996Z,99509.72
2024-01-06T03:21:21.663Z,99501.28
2024-01-06T03:22:24.824Z,99503.19
2024-01-06T03:23:27.836Z,99496.47
2024-01-06T03:24:32.054Z,99489.59
2024-01-06T03:25:35.072Z,99485.72
2024-01-06T03:26:38.058Z,99486.53
2024-01-06T03:27:41.145Z,99483.78
2024-01-06T03:28:44.162Z,99486.09
2024-01-06T03:29:47.752Z,99490.94
2024-01-06T03:30:50.827Z,99488.00
2024-01-06T03:31:53.884Z,99485.69
2024-01-06T03:32:57.055Z,99482.91
2024-01-06T03:34:00.298Z,99488.16
2024-01-06T03:35:03.386Z,99481.97
2024-01-06T03:36:08.191Z,99484.59
2024-01-06T03:37:11.216Z,99480.28
2024-01-06T03:38:14.353Z,99491.88
2024-01-06T03:39:17.421Z,99487.09
2024-01-06T03:40:20.484Z,99482.69
2024-01-06T03:41:23.474Z,99482.03
2024-01-06T03:42:26.520Z,99490.94
2024-01-06T03:43:29.541Z,99492.88
2024-01-06T03:44:34.871Z,99488.19
2024-01-06T03:45:38.036Z,99490.41
2024-01-06T03:46:41.073Z,99488.19
2024-01-06T03:47:44.115Z,99486.81
2024-01-06T03:48:47.277Z,99496.19
2024-01-06T03:49:50.488Z,99496.88
2024-01-06T03:50:53.519Z,99492.50
2024-01-06T03:51:56.637Z,99495.34
2024-01-06T03:52:59.683Z,99489.59
2024-01-06T03:54:02.674Z,99497.28
2024-01-06T03:55:06.925Z,99502.41
2024-01-06T03:56:10.047Z,99501.94
2024-01-06T03:57:13.051Z,99500.59
2024-01-06T03:58:16.058Z,99499.50
2024-01-06T03:59:19.049Z,99506.34
2024-01-06T04:00:22.104Z,99503.63
2024-01-06T04:01:25.138Z,99506.94
2024-01-06T04:02:28.114Z,99505.13
2024-01-06T04:03:31.199Z,99502.34
2024-01-06T04:04:34.282Z,99503.84
2024-01-06T04:05:37.304Z,99502.91
2024-01-06T04:06:40.354Z,99510.06
2024-01-06T04:07:43.359Z,99513.94
2024-01-06T04:08:46.416Z,99520.44
2024-01-06T04:09:49.464Z,99525.09
2024-01-06T04:10:52.449Z,99534.31
2024-01-06T04:11:55.444Z,99541.72
2024-01-06T04:12:58.487Z,99532.75
2024-01-06T04:14:01.500Z,99523.28
2024-01-06T04:15:04.945Z,99521.75
2024-01-06T04:16:07.983Z,99536.66
2024-01-06T04:17:10.963Z,99541.72
2024-01-06T04:18:14.120Z,99536.75
2024-01-06T04:19:17.263Z,99523.38
2024-01-06T04:20:20.284Z,99520.06
2024-01-06T04:21:23.648Z,99519.38
2024-01-06T04:22:26.823Z,99527.25
2024-01-06T04:23:29.862Z,99526.69
2024-01-06T04:24:35.771Z,99523.09
2024-01-06T04:25:38.928Z,99527.34
2024-01-06T04:26:46.242Z,99523.78
2024-01-06T04:27:50.131Z,99520.59
2024-01-06T04:28:53.191Z,99513.31
2024-01-06T04:29:56.200Z,99514.34
2024-01-06T04:30:59.281Z,99513.53
2024-01-06T04:32:02.465Z,99518.25
2024-01-06T04:33:05.652Z,99516.28
2024-01-06T04:34:08.848Z,99518.66
2024-01-06T04:35:12.219Z,99524.13
2024-01-06T04:36:15.221Z,99527.75
2024-01-06T04:37:18.216Z,99529.38
2024-01-06T04:38:21.227Z,99525.28
2024-01-06T04:39:25.192Z,99530.66
2024-01-06T04:40:28.855Z,99531.06
2024-01-06T04:41:32.250Z,99533.03
2024-01-06T04:42:35.497Z,99540.16
2024-01-06T04:43:38.494Z,99535.75
2024-01-06T04:44:41.499Z,99534.25
2024-01-06T04:45:44.549Z,99528.47
2024-01-06T04:46:47.582Z,99525.00
2024-01-06T04:47:50.784Z,99521.19
2024-01-06T04:48:53.913Z,99520.06
2024-01-06T04:49:56.979Z,99527.81
2024-01-06T04:51:00.154Z,99513.19
2024-01-06T04:52:03.130Z,99511.00
2024-01-06T04:53:06.140Z,99522.00
2024-01-06T04:54:09.149Z,99520.06
2024-01-06T04:55:12.164Z,99519.09
2024-01-06T04:56:15.165Z,99520.38
2024-01-06T04:57:18.300Z,99514.31
2024-01-06T04:58:21.308Z,99515.16
2024-01-06T04:59:24.272Z,99522.19
2024-01-06T05:00:27.456Z,99510.50
2024-01-06T05:01:30.633Z,99516.38
2024-01-06T05:02:34.100Z,99517.88
2024-01-06T05:03:37.160Z,99518.97
2024-01-06T05:04:40.184Z,99506.84
2024-01-06T05:05:43.685Z,99510.88
2024-01-06T05:06:46.843Z,99517.06
2024-01-06T05:07:49.899Z,99511.53
2024-01-06T05:08:52.883Z,99511.69
2024-01-06T05:09:55.917Z,99510.72
2024-01-06T05:10:58.960Z,99506.59
2024-01-06T05:12:01.947Z,99501.63
2024-01-06T05:13:05.114Z,99507.41
2024-01-06T05:14:08.153Z,99511.13
2024-01-06T05:15:11.128Z,99509.66
2024-01-06T05:16:14.111Z,99499.31
2024-01-06T05:17:17.097Z,99498.63
2024-01-06T05:18:20.162Z,99498.09
2024-01-06T05:19:23.499Z,99489.81
2024-01-06T05:20:26.647Z,99493.50
2024-01-06T05:21:31.148Z,99491.84
2024-01-06T05:22:34.168Z,99491.16
2024-01-06T05:23:37.171Z,99492.38
2024-01-06T05:24:40.166Z,99492.53
2024-01-06T05:25:43.127Z,99493.34
2024-01-06T05:26:46.180Z,99489.22
2024-01-06T05:27:49.192Z,99494.75
2024-01-06T05:28:53.221Z,99494.47
2024-01-06T05:29:56.232Z,99500.00
2024-01-06T05:30:59.280Z,99497.38
2024-01-06T05:32:02.300Z,99500.28
2024-01-06T05:33:05.742Z,99500.28
2024-01-06T05:34:08.922Z,99503.31
2024-01-06T05:35:12.007Z,99502.50
2024-01-06T05:36:15.050Z,99502.34
2024-01-06T05:37:18.064Z,99498.22
2024-01-06T05:38:21.045Z,99496.16
2024-01-06T05:39:24.061Z,99497.28
2024-01-06T05:40:27.041Z,99493.09
2024-01-06T05:41:30.033Z,99493.38
2024-01-06T05:42:34.174Z,99496.41
2024-01-06T05:43:37.266Z,99501.63
2024-01-06T05:44:40.264Z,99504.41
2024-01-06T05:45:43.334Z,99504.41
2024-01-06T05:46:46.337Z,99507.56
2024-01-06T05:47:49.436Z,99502.84
2024-01-06T05:48:52.847Z,99510.28
2024-01-06T05:49:55.982Z,99506.84
2024-01-06T05:50:58.982Z,99509.59
2024-01-06T05:52:01.995Z,99510.88
2024-01-06T05:53:05.111Z,99512.63
2024-01-06T05:54:08.097Z,99516.09
2024-01-06T05:55:11.140Z,99520.13
2024-01-06T05:56:26.937Z,99524.78
2024-01-06T05:57:29.992Z,99524.63
2024-01-06T05:58:32.984Z,99523.00
2024-01-06T05:59:37.117Z,99524.22
2024-01-06T06:00:40.190Z,99525.50
2024-01-06T06:01:44.768Z,99527.81
2024-01-06T06:02:47.820Z,99543.50
2024-01-06T06:03:51.445Z,99533.28
2024-01-06T06:04:54.771Z,99538.13
2024-01-06T06:05:57.859Z,99540.44
2024-01-06T06:07:02.512Z,99539.91
2024-01-06T06:08:06.173Z,99533.47
2024-01-06T06:09:10.336Z,99537.72
2024-01-06T06:10:13.997Z,99538.53
2024-01-06T06:11:17.882Z,99535.50
2024-01-06T06:12:20.943Z,99535.19
2024-01-06T06:13:23.988Z,99534.91
2024-01-06T06:14:29.917Z,99529.00
2024-01-06T06:15:33.941Z,99535.19
2024-01-06T06:16:37.189Z,99533.56
2024-01-06T06:17:41.389Z,99534.66
2024-01-06T06:18:44.499Z,99529.97
2024-01-06T06:19:47.793Z,99532.75
2024-01-06T06:20:50.874Z,99530.25
2024-01-06T06:21:54.010Z,99526.69
2024-01-06T06:22:57.118Z,99525.72
2024-01-06T06:24:00.110Z,99521.72
2024-01-06T06:25:03.564Z,99520.69
2024-01-06T06:26:10.701Z,99526.75
2024-01-06T06:27:13.754Z,99525.19
2024-01-06T06:28:17.027Z,99526.81
2024-01-06T06:29:22.025Z,99522.28
2024-01-06T06:30:25.295Z,99529.19
2024-01-06T06:31:28.482Z,99528.72
2024-01-06T06:32:31.587Z,99525.41
2024-01-06T06:33:35.247Z,99534.28
2024-01-06T06:34:38.331Z,99543.78
2024-01-06T06:35:41.333Z,99544.31
2024-01-06T06:36:44.413Z,99538.28
2024-01-06T06:37:47.438Z,99540.50
2024-01-06T06:38:50.436Z,99545.03
2024-01-06T06:39:53.562Z,99548.47
2024-01-06T06:40:57.573Z,99538.69
2024-01-06T06:42:00.593Z,99543.09
2024-01-06T06:43:03.599Z,99535.38
2024-01-06T06:44:06.657Z,99526.94
2024-01-06T06:45:12.944Z,99537.97
2024-01-06T06:46:16.493Z,99531.66
2024-01-06T06:47:20.560Z,99526.69
2024-01-06T06:48:24.002Z,99530.25
2024-01-06T06:49:27.142Z,99535.88
2024-01-06T06:50:30.545Z,99528.84
2024-01-06T06:51:33.588Z,99528.16
2024-01-06T06:52:36.596Z,99531.63
2024-01-06T06:53:39.597Z,99530.38
2024-01-06T06:54:42.794Z,99522.97
2024-01-06T06:55:45.818Z,99525.00
2024-01-06T06:56:48.807Z,99519.34
2024-01-06T06:57:51.876Z,99525.00
2024-01-06T06:58:54.859Z,99509.59
2024-01-06T06:59:57.895Z,99516.22
2024-01-06T07:01:01.043Z,99511.94
2024-01-06T07:02:04.393Z,99510.13
2024-01-06T07:03:07.446Z,99510.88
2024-01-06T07:04:10.512Z,99519.84
2024-01-06T07:05:13.656Z,99513.19
2024-01-06T07:06:16.921Z,99516.34
2024-01-06T07:07:19.956Z,99518.84
2024-01-06T07:08:22.965Z,99525.88
2024-01-06T07:09:25.979Z,99519.09
2024-01-06T07:10:28.993Z,99516.75
2024-01-06T07:11:32.120Z,99521.16
2024-01-06T07:12:35.182Z,99518.44
2024-01-06T07:13:38.613Z,99527.63
2024-01-06T07:14:41.622Z,99528.03
2024-01-06T07:15:44.694Z,99520.31
2024-01-06T07:16:47.683Z,99525.13
2024-01-06T07:17:50.774Z,99523.31
2024-01-06T07:18:54.094Z,99529.53
2024-01-06T07:19:57.268Z,99529.38
2024-01-06T07:21:00.301Z,99532.97
2024-01-06T07:22:06.192Z,99536.56
2024-01-06T07:23:10.028Z,99534.91
2024-01-06T07:24:13.081Z,99530.78
2024-01-06T07:25:16.130Z,99528.31
2024-01-06T07:26:19.139Z,99528.56
2024-01-06T07:27:22.153Z,99525.38
2024-01-06T07:28:26.357Z,99523.00
2024-01-06T07:29:29.347Z,99517.75
2024-01-06T07:30:32.722Z,99522.41
2024-01-06T07:31:36.065Z,99516.25
2024-01-06T07:32:39.191Z,99514.44
2024-01-06T07:33:42.351Z,99514.16
2024-01-06T07:34:45.453Z,99516.13
2024-01-06T07:35:48.486Z,99515.16
2024-01-06T07:36:51.520Z,99512.53
2024-01-06T07:37:54.533Z,99516.97
2024-01-06T07:38:57.576Z,99510.59
2024-01-06T07:40:00.655Z,99506.69
2024-01-06T07:41:05.723Z,99507.97
2024-01-06T07:42:08.744Z,99504.88
2024-01-06T07:43:11.750Z,99511.50
2024-01-06T07:44:14.763Z,99513.97
2024-01-06T07:45:17.868Z,99513.13
2024-01-06T07:46:21.020Z,99518.19
2024-01-06T07:47:24.003Z,99522.78
2024-01-06T07:48:27.111Z,99522.28
2024-01-06T07:49:30.337Z,99529.44
2024-01-06T07:50:33.448Z,99532.75
2024-01-06T07:51:36.491Z,99525.13
2024-01-06T07:52:39.541Z,99519.16
2024-01-06T07:53:43.529Z,99518.88
2024-01-06T07:54:46.540Z,99514.44
2024-01-06T07:55:49.552Z,99516.97
2024-01-06T07:56:52.543Z,99518.66
2024-01-06T07:57:56.162Z,99511.75
2024-01-06T07:58:59.384Z,99514.44
2024-01-06T08:00:04.481Z,99513.63
2024-01-06T08:01:09.233Z,99510.78
2024-01-06T08:02:12.323Z,99521.63
2024-01-06T08:03:15.524Z,99514.06
2024-01-06T08:04:18.622Z,99515.03
2024-01-06T08:05:21.747Z,99521.63
2024-01-06T08:06:25.028Z,99516.38
2024-01-06T08:07:28.085Z,99523.78
2024-01-06T08:08:31.107Z,99517.78
2024-01-06T08:09:34.257Z,99514.81
2024-01-06T08:10:37.328Z,99512.41
2024-01-06T08:11:40.321Z,99510.78
2024-01-06T08:12:43.336Z,99501.94
2024-01-06T08:13:46.381Z,99506.75
2024-01-06T08:14:49.368Z,99511.25
2024-01-06T08:15:52.671Z,99511.13
2024-01-06T08:16:55.814Z,99517.69
2024-01-06T08:17:58.857Z,99523.53
2024-01-06T08:19:02.088Z,99529.69
2024-01-06T08:20:06.195Z,99524.59
2024-01-06T08:21:09.178Z,99538.13
2024-01-06T08:22:12.168Z,99535.91
2024-01-06T08:23:15.415Z,99541.66
2024-01-06T08:24:18.490Z,99541.72
2024-01-06T08:25:21.519Z,99536.19
2024-01-06T08:26:24.512Z,99536.59
2024-01-06T08:27:27.545Z,99536.19
2024-01-06T08:28:30.931Z,99537.25
2024-01-06T08:29:33.938Z,99531.16
2024-01-06T08:30:37.104Z,99531.16
2024-01-06T08:31:40.350Z,99541.94
2024-01-06T08:32:43.441Z,99544.00
2024-01-06T08:33:46.682Z,99538.19
2024-01-06T08:34:49.904Z,99546.56
2024-01-06T08:35:52.998Z,99532.50
2024-01-06T08:36:56.070Z,99541.03
2024-01-06T08:37:59.187Z,99534.47
2024-01-06T08:39:02.236Z,99531.16
2024-01-06T08:40:06.162Z,99543.28
2024-01-06T08:41:09.242Z,99540.56
2024-01-06T08:42:12.290Z,99540.81
2024-01-06T08:43:15.511Z,99532.19
2024-01-06T08:44:18.523Z,99534.47
2024-01-06T08:45:21.648Z,99539.69
2024-01-06T08:46:24.655Z,99538.72
2024-01-06T08:47:27.658Z,99530.03
2024-01-06T08:48:34.485Z,99532.94
2024-01-06T08:49:38.892Z,99528.63
2024-01-06T08:50:42.022Z,99536.03
2024-01-06T08:51:45.195Z,99528.13
2024-01-06T08:52:48.232Z,99531.44
2024-01-06T08:53:51.338Z,99534.16
2024-01-06T08:54:55.197Z,99534.16
2024-01-06T08:55:58.336Z,99536.63
2024-01-06T08:57:01.500Z,99542.78
2024-01-06T08:58:04.668Z,99540.69
2024-01-06T08:59:07.707Z,99533.66
2024-01-06T09:00:12.108Z,99530.47
2024-01-06T09:01:15.287Z,99536.13
2024-01-06T09:02:18.346Z,99534.34
2024-01-06T09:03:27.171Z,99542.84
2024-01-06T09:04:30.649Z,99538.91
2024-01-06T09:05:35.159Z,99525.84
2024-01-06T09:06:38.396Z,99528.53
2024-01-06T09:07:41.429Z,99539.59
2024-01-06T09:08:44.426Z,99534.25
2024-01-06T09:09:47.449Z,99534.69
2024-01-06T09:10:52.663Z,99537.13
2024-01-06T09:11:55.676Z,99532.16
2024-01-06T09:12:58.700Z,99536.78
2024-01-06T09:14:02.042Z,99534.19
2024-01-06T09:15:05.556Z,99529.44
2024-01-06T09:16:08.724Z,99528.50
2024-01-06T09:17:11.853Z,99526.09
2024-01-06T09:18:15.150Z,99528.41
2024-01-06T09:19:18.489Z,99520.63
2024-01-06T09:20:26.107Z,99518.59
2024-01-06T09:21:29.165Z,99519.19
2024-01-06T09:22:33.517Z,99518.44
2024-01-06T09:23:36.524Z,99515.69
2024-01-06T09:24:39.525Z,99518.59
2024-01-06T09:25:42.523Z,99511.78
2024-01-06T09:26:45.593Z,99514.41
2024-01-06T09:27:48.607Z,99511.69
2024-01-06T09:28:51.621Z,99513.88
2024-01-06T09:29:54.696Z,99510.44
2024-01-06T09:30:57.755Z,99509.09
2024-01-06T09:32:00.836Z,99508.03
2024-01-06T09:33:04.094Z,99504.44
2024-01-06T09:34:11.704Z,99507.34
2024-01-06T09:35:15.887Z,99504.13
2024-01-06T09:36:19.633Z,99502.88
2024-01-06T09:37:22.969Z,99503.69
2024-01-06T09:38:25.958Z,99505.94
2024-01-06T09:39:28.984Z,99504.81
2024-01-06T09:40:33.723Z,99505.50
2024-01-06T09:41:36.875Z,99500.59
2024-01-06T09:42:39.938Z,99502.50
2024-01-06T09:43:43.005Z,99504.44
2024-01-06T09:44:46.000Z,99498.66
2024-01-06T09:46:08.509Z,99497.41
2024-01-06T09:47:13.765Z,99497.75
2024-01-06T09:48:19.193Z,99499.94
2024-01-06T09:49:25.733Z,99502.06
2024-01-06T09:50:29.757Z,99498.38
2024-01-06T09:51:32.833Z,99504.69
2024-01-06T09:52:45.304Z,99500.69
2024-01-06T09:54:00.460Z,99496.94
2024-01-06T09:55:06.912Z,99493.06
2024-01-06T09:56:11.172Z,99491.09
2024-01-06T09:57:14.244Z,99492.59
2024-01-06T09:58:17.402Z,99489.97
2024-01-06T09:59:21.346Z,99498.31
2024-01-06T10:00:24.695Z,99493.72
2024-01-06T10:01:27.789Z,99496.13
2024-01-06T10:02:32.834Z,99502.44
2024-01-06T10:03:38.131Z,99506.25
2024-01-06T10:04:41.586Z,99507.38
2024-01-06T10:05:44.760Z,99500.75
2024-01-06T10:06:47.848Z,99500.75
2024-01-06T10:07:51.239Z,99503.84
2024-01-06T10:08:54.638Z,99502.13
2024-01-06T10:09:57.766Z,99502.75
2024-01-06T10:11:02.136Z,99500.16
2024-01-06T10:12:05.705Z,99506.00
2024-01-06T10:13:08.781Z,99512.63
2024-01-06T10:14:13.115Z,99504.75
2024-01-06T10:15:16.150Z,99508.88
2024-01-06T10:16:20.218Z,99509.31
2024-01-06T10:17:23.856Z,99501.81
2024-01-06T10:18:30.906Z,99504.53
2024-01-06T10:19:34.233Z,99504.00
2024-01-06T10:20:37.596Z,99506.75
2024-01-06T10:21:41.173Z,99502.34
2024-01-06T10:22:45.687Z,99506.66
2024-01-06T10:23:49.899Z,99512.69
2024-01-06T10:24:52.966Z,99510.06
2024-01-06T10:25:58.406Z,99506.84
2024-01-06T10:27:02.572Z,99506.63
2024-01-06T10:28:05.844Z,99508.72
2024-01-06T10:29:08.824Z,99507.88
2024-01-06T10:30:15.729Z,99498.75
2024-01-06T10:31:19.602Z,99499.88
2024-01-06T10:32:22.867Z,99494.03
2024-01-06T10:33:27.946Z,99497.78
2024-01-06T10:34:33.702Z,99502.84
2024-01-06T10:35:37.690Z,99502.84
2024-01-06T10:36:40.946Z,99504.81
2024-01-06T10:37:43.981Z,99492.09
2024-01-06T10:38:47.099Z,99504.53
2024-01-06T10:39:50.130Z,99489.91
2024-01-06T10:41:08.290Z,99494.03
2024-01-06T10:42:13.972Z,99483.28
2024-01-06T10:43:18.551Z,99483.78
2024-01-06T10:44:22.956Z,99478.53
2024-01-06T10:45:26.024Z,99480.84
2024-01-06T10:46:31.314Z,99472.53
2024-01-06T10:47:39.221Z,99473.66
2024-01-06T10:48:45.941Z,99478.91
2024-01-06T10:49:54.692Z,99477.22
2024-01-06T10:51:01.178Z,99466.22
2024-01-06T10:52:07.372Z,99467.56
2024-01-06T10:53:11.449Z,99468.09
2024-01-06T10:54:15.737Z,99467.13
2024-01-06T10:55:21.617Z,99467.13
2024-01-06T10:56:26.487Z,99467.78
2024-01-06T10:57:33.008Z,99465.53
2024-01-06T10:58:44.387Z,99463.56
2024-01-06T10:59:52.412Z,99462.75
2024-01-06T11:00:58.358Z,99457.69
2024-01-06T11:02:03.691Z,99463.56
2024-01-06T11:03:07.643Z,99461.63
2024-01-06T11:04:12.146Z,99456.06
2024-01-06T11:05:16.500Z,99455.38
2024-01-06T11:06:21.214Z,99455.38
2024-01-06T11:07:27.254Z,99455.88
2024-01-06T11:08:32.904Z,99452.69
2024-01-06T11:09:41.123Z,99456.94
2024-01-06T11:10:44.472Z,99446.19
2024-01-06T11:11:48.257Z,99442.59
2024-01-06T11:13:21.472Z,99441.94
2024-01-06T11:14:29.321Z,99441.34
2024-01-06T11:15:45.022Z,99434.31
2024-01-06T11:16:48.298Z,99437.22
2024-01-06T11:17:59.385Z,99435.56
2024-01-06T11:19:03.196Z,99421.78
2024-01-06T11:20:07.831Z,99419.91
2024-01-06T11:21:26.621Z,99424.09
2024-01-06T11:22:36.832Z,99424.72
2024-01-06T11:23:40.070Z,99422.03
2024-01-06T11:24:52.021Z,99415.16
2024-01-06T11:25:55.050Z,99415.41
2024-01-06T11:26:58.707Z,99413.38
2024-01-06T11:28:09.531Z,99410.47
2024-01-06T11:29:13.110Z,99407.16
2024-01-06T11:30:27.620Z,99398.97
2024-01-06T11:31:34.074Z,99396.50
2024-01-06T11:32:43.467Z,99400.97
2024-01-06T11:33:50.547Z,99400.88
2024-01-06T11:34:57.551Z,99391.91
2024-01-06T11:36:03.236Z,99388.13
2024-01-06T11:37:10.494Z,99384.47
2024-01-06T11:38:15.182Z,99388.28
2024-01-06T11:39:42.621Z,99393.31
2024-01-06T11:40:45.693Z,99372.38
2024-01-06T11:41:53.146Z,99385.81
2024-01-06T11:43:10.693Z,99380.25
2024-01-06T11:44:13.718Z,99380.25
2024-01-06T11:45:16.780Z,99376.06
2024-01-06T11:46:20.596Z,99380.06
2024-01-06T11:47:24.997Z,99373.38
2024-01-06T11:48:33.080Z,99366.19
2024-01-06T11:49:36.332Z,99366.38
2024-01-06T11:50:41.038Z,99371.09
2024-01-06T11:51:44.588Z,99366.19
2024-01-06T11:52:47.743Z,99361.13
2024-01-06T11:53:50.902Z,99366.69
2024-01-06T11:54:56.278Z,99362.97
2024-01-06T11:56:01.591Z,99360.84
2024-01-06T11:57:05.081Z,99362.50
2024-01-06T11:58:08.182Z,99362.81
2024-01-06T11:59:11.240Z,99361.00
2024-01-06T12:00:17.648Z,99364.78
2024-01-06T12:01:20.771Z,99369.22
2024-01-06T12:02:23.844Z,99369.22
2024-01-06T12:03:27.809Z,99367.59
2024-01-06T12:04:31.075Z,99356.78
2024-01-06T12:05:34.234Z,99357.09
2024-01-06T12:06:37.282Z,99360.03
2024-01-06T12:07:43.810Z,99358.72
2024-01-06T12:08:46.786Z,99356.47
2024-01-06T12:10:03.311Z,99363.88
2024-01-06T12:11:06.781Z,99362.88
2024-01-06T12:12:16.170Z,99361.94
2024-01-06T12:13:19.180Z,99352.59
2024-01-06T12:14:22.172Z,99355.84
2024-01-06T12:15:25.277Z,99352.06
2024-01-06T12:16:28.610Z,99354.50
2024-01-06T12:17:32.730Z,99357.34
2024-01-06T12:18:35.857Z,99356.38
2024-01-06T12:19:40.782Z,99357.13
2024-01-06T12:20:46.349Z,99341.75
2024-01-06T12:21:49.344Z,99334.84
2024-01-06T12:22:56.586Z,99336.19
2024-01-06T12:24:19.495Z,99347.84
2024-01-06T12:25:27.277Z,99349.66
2024-01-06T12:26:30.711Z,99352.63
2024-01-06T12:27:34.161Z,99349.34
2024-01-06T12:28:37.534Z,99352.94
2024-01-06T12:29:42.574Z,99349.66
2024-01-06T12:30:46.027Z,99354.91